Unbenanntes Dokument
Flugplatz Bielefeld Platzwetter

 

Aktuelles Platzwetter am Flugplatz Bielefeld EDLI

18.03.19 ,17:44 Uhr

METAR EDLI 181743Z 29010KT 9999 ///075 05/M02 Q1019

 

Windwerte

 

Wolkenuntergrenzen

Wind aktuell:280 ° mit 5 kt
Wind 10 min Extrem:
270 ° bis 300 ° mit 5 kt bis 15 kt
Seitenwindkomponente: 0.6 kt
Wolkengrenze 1: 7500 ft
Wolkengrenze 2:
Wolkengrenze 3:

Webcam

Temperatur

       

Sichtweite:

20.000 Meter

5.2 °C
Taupunkt: -2.2 °C
Luftfeuchtigkeit: 58 %

Luftdruck:

QNH: 1019 hPa (30.09 in Hg)
QFE: 1002 hPa (29.59 in Hg)

Diese Daten werden automatisch ermittelt bzw. übertragen und sind nicht geprüft. Für die Richtigkeit wird daher keine Gewähr übernommen. Sie ersetzen im übrigen nicht die Flugwetterberatung. Alle Zeitangaben beziehen sich auf UTC. Die Seite wird einmal die Minute aktualisiert! Sollten Sie ein ältere Seite haben, so drücken Sie bitte auf den Reload Button Ihres Browsers!